Time;durP1;ratioP1;P1;durP2;ratioP2;P2;SDS_P1;SDS_P2;PMS_P1;PMS_P2;Temp;Humidity;BMP_temperature;BMP_pressure;BME280_temperature;BME280_humidity;BME280_pressure;Samples;Min_cycle;Max_cycle;Signal;HPM_P1;HPM_P2
2022/09/03 00:00:37;;;;;;;0.75;0.75;;;;;;;;;;5076961;28;20047;-77
2022/09/03 00:03:42;;;;;;;1.45;0.88;;;;;;;;;;5112116;28;20059;-77
2022/09/03 00:06:27;;;;;;;1.40;0.80;;;;;;;;;;5028885;28;20861;-77
2022/09/03 00:09:16;;;;;;;1.42;0.93;;;;;;;;;;5028606;28;20120;-77
2022/09/03 00:11:50;;;;;;;1.77;1.05;;;;;;;;;;5067216;28;20113;-77
2022/09/03 00:14:39;;;;;;;1.13;0.90;;;;;;;;;;5112006;28;20047;-77
2022/09/03 00:17:15;;;;;;;2.38;0.80;;;;;;;;;;5082518;28;20566;-78
2022/09/03 00:20:01;;;;;;;1.80;1.10;;;;;;;;;;5077443;28;20063;-77
2022/09/03 00:22:29;;;;;;;2.17;1.03;;;;;;;;;;5093282;28;20047;-78
2022/09/03 00:24:59;;;;;;;1.30;1.00;;;;;;;;;;5110068;28;20043;-77
2022/09/03 00:27:26;;;;;;;3.80;1.05;;;;;;;;;;5114698;27;20044;-77
2022/09/03 00:29:57;;;;;;;3.33;1.10;;;;;;;;;;5109018;28;20047;-77
2022/09/03 00:32:33;;;;;;;0.80;0.80;;;;;;;;;;5110314;28;20047;-78
2022/09/03 00:34:59;;;;;;;;;;;;;;;;;;5112616;28;20044;-77
2022/09/03 00:37:27;;;;;;;0.82;0.80;;;;;;;;;;5093067;28;19927;-78
2022/09/03 00:39:54;;;;;;;4.50;0.90;;;;;;;;;;5093242;28;20048;-77
2022/09/03 00:42:22;;;;;;;2.50;1.00;;;;;;;;;;5093168;28;20177;-77
2022/09/03 00:44:51;;;;;;;1.27;0.70;;;;;;;;;;5110887;28;20564;-77
2022/09/03 00:47:40;;;;;;;4.57;0.80;;;;;;;;;;5091846;28;20059;-78
2022/09/03 00:50:28;;;;;;;2.95;1.17;;;;;;;;;;5101071;28;20142;-78
2022/09/03 00:53:06;;;;;;;1.00;0.90;;;;;;;;;;5110863;28;20040;-78
2022/09/03 00:55:42;;;;;;;1.73;0.93;;;;;;;;;;5109752;28;20051;-77
2022/09/03 00:58:08;;;;;;;4.13;1.50;;;;;;;;;;5127722;27;20047;-77
2022/09/03 01:00:35;;;;;;;;;;;;;;;;;;5092632;28;20730;-77
2022/09/03 01:03:08;;;;;;;0.60;0.60;;;;;;;;;;5092798;28;19927;-77
2022/09/03 01:05:34;;;;;;;2.00;0.90;;;;;;;;;;5093064;28;20047;-78
2022/09/03 01:08:30;;;;;;;1.30;1.08;;;;;;;;;;5092514;28;20374;-77
2022/09/03 01:11:02;;;;;;;3.40;0.90;;;;;;;;;;5093388;28;20126;-77
2022/09/03 01:13:36;;;;;;;0.75;0.68;;;;;;;;;;5092851;28;20101;-77
2022/09/03 01:16:02;;;;;;;2.00;0.90;;;;;;;;;;5110493;28;20062;-78
2022/09/03 01:18:33;;;;;;;2.70;1.42;;;;;;;;;;5085277;28;20043;-78
2022/09/03 01:21:17;;;;;;;1.05;0.52;;;;;;;;;;5111371;28;20054;-78
2022/09/03 01:23:43;;;;;;;1.83;0.88;;;;;;;;;;5110485;28;20079;-77
2022/09/03 01:26:10;;;;;;;1.10;0.70;;;;;;;;;;5091216;28;20136;-80
2022/09/03 01:28:55;;;;;;;1.23;0.80;;;;;;;;;;5092349;28;20117;-80
2022/09/03 01:31:36;;;;;;;1.00;0.93;;;;;;;;;;5075665;28;20454;-79
2022/09/03 01:34:10;;;;;;;0.70;0.70;;;;;;;;;;5079423;28;20067;-79
2022/09/03 01:36:46;;;;;;;0.98;0.68;;;;;;;;;;5072396;28;20818;-79
2022/09/03 01:39:17;;;;;;;5.22;1.00;;;;;;;;;;5071300;28;20463;-80
2022/09/03 01:42:15;;;;;;;1.55;1.10;;;;;;;;;;5072061;28;20040;-80
2022/09/03 01:44:43;;;;;;;1.42;0.93;;;;;;;;;;5046660;28;20059;-80
2022/09/03 01:47:25;;;;;;;0.80;0.80;;;;;;;;;;5110008;28;20052;-79
2022/09/03 01:50:10;;;;;;;2.28;1.10;;;;;;;;;;5093150;28;20069;-80
2022/09/03 01:52:52;;;;;;;0.95;0.80;;;;;;;;;;5107782;28;20111;-78
2022/09/03 01:55:37;;;;;;;1.60;1.20;;;;;;;;;;5090547;28;20400;-78
2022/09/03 01:58:22;;;;;;;1.48;1.00;;;;;;;;;;5127038;28;20138;-78
2022/09/03 02:00:55;;;;;;;1.50;0.90;;;;;;;;;;5109390;28;20073;-78
2022/09/03 02:03:23;;;;;;;0.88;0.85;;;;;;;;;;5126186;28;20058;-78
2022/09/03 02:05:51;;;;;;;0.90;0.90;;;;;;;;;;5110892;28;20103;-78
2022/09/03 02:08:19;;;;;;;0.70;0.70;;;;;;;;;;5094135;28;20079;-78
2022/09/03 02:10:50;;;;;;;3.00;0.85;;;;;;;;;;5114828;28;20044;-78
2022/09/03 02:13:19;;;;;;;3.20;1.05;;;;;;;;;;5114827;28;20047;-78
2022/09/03 02:15:47;;;;;;;2.67;1.10;;;;;;;;;;5113875;28;20113;-78
2022/09/03 02:18:16;;;;;;;1.20;0.80;;;;;;;;;;5096186;28;20048;-78
2022/09/03 02:20:42;;;;;;;5.20;0.68;;;;;;;;;;5116948;27;20051;-78
2022/09/03 02:23:09;;;;;;;0.65;0.65;;;;;;;;;;5088895;28;20075;-78
2022/09/03 02:25:39;;;;;;;1.70;0.90;;;;;;;;;;5082246;28;20044;-78
2022/09/03 02:28:07;;;;;;;1.58;0.73;;;;;;;;;;5093697;28;20569;-79
2022/09/03 02:30:33;;;;;;;1.35;0.90;;;;;;;;;;5074738;28;20060;-78
2022/09/03 02:32:59;;;;;;;3.20;1.05;;;;;;;;;;5075415;28;20056;-78
2022/09/03 02:35:25;;;;;;;0.73;0.70;;;;;;;;;;5075820;28;20060;-77
2022/09/03 02:37:51;;;;;;;3.17;1.00;;;;;;;;;;5074979;28;20055;-78
2022/09/03 02:40:17;;;;;;;0.88;0.80;;;;;;;;;;5068863;28;20087;-78
2022/09/03 02:42:43;;;;;;;;;;;;;;;;;;5095634;28;20569;-78
2022/09/03 02:45:17;;;;;;;0.73;0.70;;;;;;;;;;5096228;28;19979;-78
2022/09/03 02:47:44;;;;;;;3.10;0.85;;;;;;;;;;5112412;28;20492;-78
2022/09/03 02:50:10;;;;;;;0.82;0.60;;;;;;;;;;5096284;28;20097;-78
2022/09/03 02:52:37;;;;;;;1.35;1.10;;;;;;;;;;5094985;28;20052;-78
2022/09/03 02:55:03;;;;;;;2.05;0.70;;;;;;;;;;5113690;28;20075;-78
2022/09/03 02:57:29;;;;;;;;;;;;;;;;;;5113595;28;20100;-78
2022/09/03 02:59:55;;;;;;;3.03;0.90;;;;;;;;;;5096178;28;20391;-78
2022/09/03 03:02:21;;;;;;;2.97;0.70;;;;;;;;;;5076810;28;20055;-78
2022/09/03 03:04:47;;;;;;;1.02;0.95;;;;;;;;;;5095878;28;20054;-78
2022/09/03 03:07:13;;;;;;;1.13;0.90;;;;;;;;;;5113893;28;20093;-79
2022/09/03 03:09:39;;;;;;;4.05;0.90;;;;;;;;;;5094516;28;20101;-78
2022/09/03 03:12:06;;;;;;;1.75;1.00;;;;;;;;;;5113732;28;20043;-78
2022/09/03 03:14:32;;;;;;;1.73;0.80;;;;;;;;;;5129155;27;20062;-78
2022/09/03 03:16:58;;;;;;;2.25;1.00;;;;;;;;;;5076789;28;20055;-78
2022/09/03 03:19:24;;;;;;;1.48;0.75;;;;;;;;;;5107841;28;20044;-78
2022/09/03 03:21:50;;;;;;;1.08;0.73;;;;;;;;;;5107176;28;20036;-78
2022/09/03 03:24:16;;;;;;;0.90;0.90;;;;;;;;;;5094593;28;20614;-78
2022/09/03 03:26:42;;;;;;;1.70;1.00;;;;;;;;;;5094906;28;20127;-78
2022/09/03 03:29:13;;;;;;;0.88;0.77;;;;;;;;;;5113431;28;20051;-78
2022/09/03 03:31:39;;;;;;;0.82;0.80;;;;;;;;;;5093770;28;20039;-78
2022/09/03 03:34:05;;;;;;;;;;;;;;;;;;5094375;28;20142;-78
2022/09/03 03:36:32;;;;;;;1.15;0.90;;;;;;;;;;5111213;28;20014;-78
2022/09/03 03:38:59;;;;;;;1.73;0.90;;;;;;;;;;5094545;28;20408;-78
2022/09/03 03:41:26;;;;;;;2.72;0.75;;;;;;;;;;5094305;28;20043;-78
2022/09/03 03:43:53;;;;;;;3.92;0.90;;;;;;;;;;5094997;28;20062;-78
2022/09/03 03:46:21;;;;;;;1.20;0.90;;;;;;;;;;5088276;28;20044;-78
2022/09/03 03:48:53;;;;;;;1.40;1.10;;;;;;;;;;5074902;28;20054;-78
2022/09/03 03:51:19;;;;;;;1.48;0.93;;;;;;;;;;5095156;28;20090;-78
2022/09/03 03:53:46;;;;;;;4.43;1.20;;;;;;;;;;5091947;28;20048;-78
2022/09/03 03:56:13;;;;;;;0.80;0.80;;;;;;;;;;5077844;28;20140;-78
2022/09/03 03:58:43;;;;;;;2.35;1.00;;;;;;;;;;5112405;28;20055;-78
2022/09/03 04:01:14;;;;;;;4.63;0.95;;;;;;;;;;5093690;28;20052;-79
2022/09/03 04:03:40;;;;;;;0.93;0.90;;;;;;;;;;5109555;28;20386;-78
2022/09/03 04:06:07;;;;;;;1.75;0.90;;;;;;;;;;5094548;28;20055;-78
2022/09/03 04:08:34;;;;;;;2.08;1.20;;;;;;;;;;5093346;28;20044;-78
2022/09/03 04:11:01;;;;;;;1.33;1.23;;;;;;;;;;5094427;28;20060;-78
2022/09/03 04:13:35;;;;;;;1.35;0.90;;;;;;;;;;5093966;28;20108;-78
2022/09/03 04:16:05;;;;;;;1.02;0.90;;;;;;;;;;5093603;28;20044;-78
2022/09/03 04:18:31;;;;;;;8.93;1.33;;;;;;;;;;5111641;28;20499;-77
2022/09/03 04:21:05;;;;;;;3.47;1.20;;;;;;;;;;5094303;28;20442;-77
2022/09/03 04:23:32;;;;;;;2.35;0.90;;;;;;;;;;5075775;28;20059;-76
2022/09/03 04:25:58;;;;;;;3.40;0.90;;;;;;;;;;5109707;28;20051;-76
2022/09/03 04:28:25;;;;;;;1.30;1.00;;;;;;;;;;5112166;28;20067;-77
2022/09/03 04:30:50;;;;;;;;;;;;;;;;;;5092620;28;20051;-77
2022/09/03 04:33:17;;;;;;;1.55;0.98;;;;;;;;;;5093554;28;20430;-77
2022/09/03 04:35:43;;;;;;;7.47;1.70;;;;;;;;;;5111509;28;20476;-76
2022/09/03 04:38:09;;;;;;;;;;;;;;;;;;5093407;28;20051;-77
2022/09/03 04:40:35;;;;;;;0.98;0.90;;;;;;;;;;5093063;28;20024;-77
2022/09/03 04:43:01;;;;;;;0.90;0.88;;;;;;;;;;5111692;28;20092;-77
2022/09/03 04:45:27;;;;;;;1.20;1.10;;;;;;;;;;5092042;28;20070;-77
2022/09/03 04:47:57;;;;;;;2.05;1.10;;;;;;;;;;5093015;28;20043;-77
2022/09/03 04:50:24;;;;;;;1.88;1.17;;;;;;;;;;5112188;28;20043;-77
2022/09/03 04:52:50;;;;;;;1.52;1.20;;;;;;;;;;5126550;27;20473;-77
2022/09/03 04:55:16;;;;;;;2.90;1.00;;;;;;;;;;5093640;28;20130;-77
2022/09/03 04:57:43;;;;;;;1.58;1.27;;;;;;;;;;5076213;28;20089;-76
2022/09/03 05:00:10;;;;;;;4.03;1.00;;;;;;;;;;5106560;28;20051;-77
2022/09/03 05:02:36;;;;;;;1.85;1.10;;;;;;;;;;5071328;28;20518;-77
2022/09/03 05:05:02;;;;;;;;;;;;;;;;;;5091469;28;20055;-76
2022/09/03 05:07:37;;;;;;;4.13;1.25;;;;;;;;;;5090321;28;19923;-77
2022/09/03 05:10:05;;;;;;;1.83;1.08;;;;;;;;;;5089670;28;20044;-77
2022/09/03 05:12:32;;;;;;;1.65;1.20;;;;;;;;;;5072308;28;20091;-77
2022/09/03 05:15:03;;;;;;;3.67;1.02;;;;;;;;;;5105099;28;20047;-76
2022/09/03 05:17:29;;;;;;;3.17;1.10;;;;;;;;;;5071401;28;20106;-78
2022/09/03 05:19:55;;;;;;;1.58;0.93;;;;;;;;;;5090455;28;20044;-76
2022/09/03 05:22:21;;;;;;;1.05;1.02;;;;;;;;;;5119687;27;20044;-77
2022/09/03 05:24:47;;;;;;;7.78;1.20;;;;;;;;;;5088360;28;20051;-76
2022/09/03 05:27:17;;;;;;;2.60;1.33;;;;;;;;;;5108876;28;20059;-77
2022/09/03 05:29:44;;;;;;;1.52;1.20;;;;;;;;;;5090240;28;20052;-77
2022/09/03 05:32:11;;;;;;;1.60;1.20;;;;;;;;;;5110152;28;20504;-77
2022/09/03 05:34:37;;;;;;;4.03;1.30;;;;;;;;;;5125708;27;20078;-76
2022/09/03 05:37:03;;;;;;;1.88;1.10;;;;;;;;;;5092841;28;20051;-76
2022/09/03 05:39:29;;;;;;;1.15;1.02;;;;;;;;;;5092117;28;20054;-76
2022/09/03 05:41:56;;;;;;;1.98;1.30;;;;;;;;;;5110453;28;20040;-77
2022/09/03 05:44:22;;;;;;;3.45;1.45;;;;;;;;;;5092831;28;20047;-76
2022/09/03 05:46:50;;;;;;;1.08;1.02;;;;;;;;;;5125563;28;20400;-77
2022/09/03 05:49:16;;;;;;;2.90;1.25;;;;;;;;;;5126768;28;20052;-77
2022/09/03 05:51:43;;;;;;;2.95;1.50;;;;;;;;;;5108471;28;20043;-77
2022/09/03 05:54:10;;;;;;;2.80;1.27;;;;;;;;;;5104007;28;20056;-77
2022/09/03 05:56:38;;;;;;;4.60;1.10;;;;;;;;;;5110120;28;20063;-77
2022/09/03 05:59:07;;;;;;;4.53;1.30;;;;;;;;;;5126345;28;20549;-76
2022/09/03 06:01:38;;;;;;;4.68;1.52;;;;;;;;;;5125260;28;20056;-77
2022/09/03 06:04:06;;;;;;;1.40;1.10;;;;;;;;;;5110535;28;20066;-77
2022/09/03 06:06:33;;;;;;;1.55;1.15;;;;;;;;;;5110778;28;20048;-76
2022/09/03 06:09:01;;;;;;;3.17;1.33;;;;;;;;;;5091435;28;20127;-77
2022/09/03 06:11:28;;;;;;;2.83;1.30;;;;;;;;;;5126771;28;20055;-76
2022/09/03 06:13:59;;;;;;;2.05;1.20;;;;;;;;;;5110118;28;20267;-76
2022/09/03 06:16:25;;;;;;;2.75;1.23;;;;;;;;;;5125006;28;20048;-77
2022/09/03 06:18:52;;;;;;;1.63;1.20;;;;;;;;;;5091866;28;20481;-76
2022/09/03 06:21:18;;;;;;;3.70;1.45;;;;;;;;;;5075749;28;20087;-76
2022/09/03 06:23:44;;;;;;;;;;;;;;;;;;5091594;28;20043;-76
2022/09/03 06:26:13;;;;;;;2.25;1.25;;;;;;;;;;5109452;28;19920;-76
2022/09/03 06:28:42;;;;;;;4.53;1.17;;;;;;;;;;5109519;28;20396;-77
2022/09/03 06:31:08;;;;;;;3.35;1.52;;;;;;;;;;5091000;28;20052;-77
2022/09/03 06:33:35;;;;;;;6.68;1.42;;;;;;;;;;5091934;28;20048;-77
2022/09/03 06:36:02;;;;;;;2.25;1.25;;;;;;;;;;5091342;28;20083;-77
2022/09/03 06:38:30;;;;;;;3.38;1.20;;;;;;;;;;5109059;28;20085;-77
2022/09/03 06:41:00;;;;;;;2.65;1.42;;;;;;;;;;5125699;28;20130;-77
2022/09/03 06:43:27;;;;;;;3.97;1.50;;;;;;;;;;5110367;28;20130;-77
2022/09/03 06:45:57;;;;;;;1.10;1.00;;;;;;;;;;5090596;28;20047;-77
2022/09/03 06:48:23;;;;;;;3.30;1.33;;;;;;;;;;5109540;28;20504;-77
2022/09/03 06:50:49;;;;;;;;;;;;;;;;;;5110377;28;20043;-76
2022/09/03 06:53:15;;;;;;;1.80;1.20;;;;;;;;;;5091244;28;19946;-77
2022/09/03 06:55:42;;;;;;;;;;;;;;;;;;5113241;28;20065;-77
2022/09/03 06:58:09;;;;;;;3.33;1.23;;;;;;;;;;5093589;28;19923;-77
2022/09/03 07:00:35;;;;;;;1.77;1.13;;;;;;;;;;5129028;27;20313;-77
2022/09/03 07:03:02;;;;;;;3.03;1.48;;;;;;;;;;5113054;28;20040;-76
2022/09/03 07:05:29;;;;;;;1.50;1.30;;;;;;;;;;5095975;28;20051;-77
2022/09/03 07:07:55;;;;;;;2.33;1.23;;;;;;;;;;5128371;27;20054;-77
2022/09/03 07:10:21;;;;;;;2.00;1.38;;;;;;;;;;5113197;28;20044;-78
2022/09/03 07:12:47;;;;;;;;;;;;;;;;;;5095599;28;20130;-77
2022/09/03 07:15:13;;;;;;;1.20;1.10;;;;;;;;;;5091787;28;20011;-81
2022/09/03 07:17:39;;;;;;;;;;;;;;;;;;5103310;28;20067;-80
2022/09/03 07:20:05;;;;;;;2.20;1.20;;;;;;;;;;5075914;28;20369;-79
2022/09/03 07:22:31;;;;;;;2.88;1.40;;;;;;;;;;5093178;28;20056;-78
2022/09/03 07:24:57;;;;;;;;;;;;;;;;;;5094335;28;20044;-79
2022/09/03 07:27:25;;;;;;;1.85;1.05;;;;;;;;;;5091261;28;19973;-79
2022/09/03 07:29:51;;;;;;;1.15;0.90;;;;;;;;;;5091902;28;20087;-79
2022/09/03 07:32:17;;;;;;;;;;;;;;;;;;5092296;28;20072;-79
2022/09/03 07:34:43;;;;;;;1.33;1.00;;;;;;;;;;5126445;27;19923;-80
2022/09/03 07:37:10;;;;;;;2.85;1.00;;;;;;;;;;5094936;28;20051;-79
2022/09/03 07:39:36;;;;;;;5.57;1.08;;;;;;;;;;5110685;28;20067;-79
2022/09/03 07:42:01;;;;;;;;;;;;;;;;;;5112800;28;20051;-79
2022/09/03 07:44:28;;;;;;;1.50;0.90;;;;;;;;;;5094949;28;20014;-80
2022/09/03 07:46:54;;;;;;;1.05;0.80;;;;;;;;;;5127183;27;20446;-80
2022/09/03 07:49:20;;;;;;;1.25;1.00;;;;;;;;;;5094359;28;20396;-80
2022/09/03 07:51:49;;;;;;;;;;;;;;;;;;5113033;28;20039;-81
2022/09/03 07:54:15;;;;;;;1.25;0.90;;;;;;;;;;5094104;28;20372;-80
2022/09/03 07:56:41;;;;;;;1.48;1.00;;;;;;;;;;5064446;28;20051;-81
2022/09/03 07:59:07;;;;;;;;;;;;;;;;;;5108580;28;20048;-80
2022/09/03 08:01:34;;;;;;;3.58;1.30;;;;;;;;;;5080546;28;19927;-79
2022/09/03 08:04:01;;;;;;;1.38;0.80;;;;;;;;;;5093752;28;20123;-79
2022/09/03 08:06:28;;;;;;;2.30;1.00;;;;;;;;;;5128793;27;20043;-79
2022/09/03 08:08:58;;;;;;;1.92;1.10;;;;;;;;;;5093077;28;20058;-79
2022/09/03 08:11:25;;;;;;;1.52;1.00;;;;;;;;;;5094254;28;20137;-80
2022/09/03 08:14:01;;;;;;;2.92;1.02;;;;;;;;;;5094013;28;20054;-79
2022/09/03 08:16:28;;;;;;;1.95;1.15;;;;;;;;;;5093609;28;20062;-77
2022/09/03 08:18:55;;;;;;;2.65;1.05;;;;;;;;;;5082899;28;20117;-78
2022/09/03 08:21:21;;;;;;;1.30;1.00;;;;;;;;;;5073964;28;20051;-77
2022/09/03 08:23:48;;;;;;;2.60;1.23;;;;;;;;;;5090551;28;20117;-78
2022/09/03 08:26:15;;;;;;;1.30;1.20;;;;;;;;;;5073807;28;20445;-79
2022/09/03 08:28:42;;;;;;;2.92;1.50;;;;;;;;;;5114360;27;20057;-81
2022/09/03 08:31:12;;;;;;;2.92;1.17;;;;;;;;;;5076648;28;20075;-79
2022/09/03 08:33:41;;;;;;;4.18;1.27;;;;;;;;;;5093995;28;20127;-79
2022/09/03 08:36:12;;;;;;;2.83;1.00;;;;;;;;;;5094865;28;20121;-82
2022/09/03 08:38:39;;;;;;;2.53;0.90;;;;;;;;;;5094756;28;20047;-81
2022/09/03 08:41:08;;;;;;;0.95;0.85;;;;;;;;;;5094081;28;20487;-81
2022/09/03 08:43:40;;;;;;;3.03;0.95;;;;;;;;;;5092207;28;20118;-81
2022/09/03 08:46:06;;;;;;;2.38;1.30;;;;;;;;;;5097585;27;20039;-81
2022/09/03 08:48:32;;;;;;;2.03;1.20;;;;;;;;;;5094198;28;20046;-83
2022/09/03 08:51:03;;;;;;;1.45;0.90;;;;;;;;;;5094315;28;20044;-81
2022/09/03 08:53:46;;;;;;;2.30;0.90;;;;;;;;;;5093168;28;20044;-83
2022/09/03 08:56:25;;;;;;;1.00;0.95;;;;;;;;;;5092892;28;20116;-82
2022/09/03 08:58:51;;;;;;;1.20;0.90;;;;;;;;;;5076016;28;20134;-81
2022/09/03 09:01:26;;;;;;;2.22;1.20;;;;;;;;;;5093124;28;20126;-80
2022/09/03 09:04:05;;;;;;;2.42;1.40;;;;;;;;;;5092613;28;20044;-81
2022/09/03 09:06:50;;;;;;;1.63;1.13;;;;;;;;;;5093137;28;20146;-81
2022/09/03 09:09:35;;;;;;;4.13;1.00;;;;;;;;;;5092085;28;20503;-81
2022/09/03 09:12:19;;;;;;;0.98;0.90;;;;;;;;;;5088761;28;20043;-82
2022/09/03 09:14:49;;;;;;;2.17;0.88;;;;;;;;;;5092454;28;20051;-83
2022/09/03 09:17:26;;;;;;;2.97;1.05;;;;;;;;;;5092004;28;20116;-84
2022/09/03 09:19:59;;;;;;;4.75;0.95;;;;;;;;;;5075653;28;20046;-81
2022/09/03 09:22:46;;;;;;;2.65;1.00;;;;;;;;;;5092834;28;20039;-81
2022/09/03 09:25:23;;;;;;;1.23;0.90;;;;;;;;;;5089169;28;20104;-82
2022/09/03 09:28:01;;;;;;;1.10;1.00;;;;;;;;;;5089541;28;20460;-85
2022/09/03 09:30:31;;;;;;;6.30;1.20;;;;;;;;;;5073083;28;20044;-80
2022/09/03 09:32:59;;;;;;;1.90;1.00;;;;;;;;;;5073313;28;20132;-80
2022/09/03 09:35:25;;;;;;;1.13;0.95;;;;;;;;;;5072041;28;20102;-80
2022/09/03 09:37:56;;;;;;;1.63;1.00;;;;;;;;;;5082322;28;20044;-81
2022/09/03 09:40:25;;;;;;;2.15;0.80;;;;;;;;;;5087780;28;20064;-81
2022/09/03 09:42:57;;;;;;;7.03;1.20;;;;;;;;;;5072754;28;20147;-81
2022/09/03 09:45:23;;;;;;;1.48;0.98;;;;;;;;;;5099504;28;20051;-81
2022/09/03 09:47:54;;;;;;;3.20;1.08;;;;;;;;;;5092628;28;20130;-80
2022/09/03 09:50:21;;;;;;;3.60;1.50;;;;;;;;;;5111225;28;20102;-82
2022/09/03 09:52:47;;;;;;;3.30;1.00;;;;;;;;;;5092201;28;20058;-82
2022/09/03 09:55:17;;;;;;;1.27;1.00;;;;;;;;;;5087267;28;20489;-82
2022/09/03 09:57:43;;;;;;;3.90;0.80;;;;;;;;;;5096898;28;20056;-82
2022/09/03 10:00:12;;;;;;;8.73;1.10;;;;;;;;;;5076006;28;20107;-89
2022/09/03 10:02:58;;;;;;;2.05;1.00;;;;;;;;;;5090150;28;20084;-87
2022/09/03 10:05:39;;;;;;;1.95;0.90;;;;;;;;;;5092127;28;20043;-85
2022/09/03 10:08:25;;;;;;;1.40;1.05;;;;;;;;;;5090579;28;20147;-81
2022/09/03 10:10:51;;;;;;;1.02;0.90;;;;;;;;;;5107013;28;20558;-81
2022/09/03 10:13:20;;;;;;;2.15;0.80;;;;;;;;;;5091911;28;20048;-81
2022/09/03 10:15:46;;;;;;;1.50;0.80;;;;;;;;;;5091409;28;20048;-81
2022/09/03 10:18:30;;;;;;;5.78;2.00;;;;;;;;;;5091554;28;20058;-82
2022/09/03 10:21:03;;;;;;;2.15;0.90;;;;;;;;;;5108107;28;20085;-82
2022/09/03 10:23:32;;;;;;;3.13;1.00;;;;;;;;;;5073399;28;20140;-82
2022/09/03 10:26:06;;;;;;;3.55;0.80;;;;;;;;;;5092435;28;20134;-81
2022/09/03 10:28:37;;;;;;;0.88;0.88;;;;;;;;;;5085386;28;20088;-84
2022/09/03 10:31:27;;;;;;;1.15;0.80;;;;;;;;;;5113100;28;20055;-83
2022/09/03 10:33:58;;;;;;;3.13;0.93;;;;;;;;;;5082418;28;20286;-83
2022/09/03 10:36:33;;;;;;;2.38;1.10;;;;;;;;;;5087997;28;20389;-83
2022/09/03 10:39:09;;;;;;;1.27;0.93;;;;;;;;;;5081942;28;20043;-84
2022/09/03 10:41:54;;;;;;;0.93;0.82;;;;;;;;;;5084857;28;20039;-84
2022/09/03 10:44:27;;;;;;;6.93;1.00;;;;;;;;;;5090197;28;20056;-84
2022/09/03 10:47:28;;;;;;;3.38;1.20;;;;;;;;;;5122594;27;20146;-84
2022/09/03 10:49:57;;;;;;;1.65;0.88;;;;;;;;;;5063664;28;20056;-85
2022/09/03 10:52:42;;;;;;;3.42;1.00;;;;;;;;;;5062482;28;20039;-85
2022/09/03 10:55:26;;;;;;;4.20;0.90;;;;;;;;;;5085505;28;20130;-90
2022/09/03 10:58:05;;;;;;;3.33;0.93;;;;;;;;;;5109714;27;20040;-82
2022/09/03 11:00:33;;;;;;;0.98;0.85;;;;;;;;;;5075083;28;20055;-82
2022/09/03 11:03:13;;;;;;;1.45;1.20;;;;;;;;;;5074502;28;20075;-84
2022/09/03 11:05:41;;;;;;;2.20;1.00;;;;;;;;;;5075532;28;20052;-82
2022/09/03 11:08:13;;;;;;;1.55;0.98;;;;;;;;;;5074061;28;20062;-82
2022/09/03 11:10:52;;;;;;;1.17;0.90;;;;;;;;;;5079990;28;20043;-84
2022/09/03 11:13:24;;;;;;;1.83;1.15;;;;;;;;;;5113697;27;20048;-83
2022/09/03 11:15:53;;;;;;;1.50;1.10;;;;;;;;;;5077986;28;20075;-84
2022/09/03 11:18:27;;;;;;;1.38;1.00;;;;;;;;;;5106578;28;20055;-84
2022/09/03 11:21:03;;;;;;;1.48;1.00;;;;;;;;;;5073900;28;20044;-83
2022/09/03 11:23:29;;;;;;;;;;;;;;;;;;5092908;28;20054;-83
2022/09/03 11:25:58;;;;;;;1.35;0.90;;;;;;;;;;5114958;27;19920;-83
2022/09/03 11:28:40;;;;;;;0.95;0.73;;;;;;;;;;5089333;28;20044;-81
2022/09/03 11:31:22;;;;;;;1.42;0.90;;;;;;;;;;5088685;28;20060;-82
2022/09/03 11:34:00;;;;;;;0.68;0.68;;;;;;;;;;5108518;27;20121;-82
2022/09/03 11:36:31;;;;;;;1.23;1.02;;;;;;;;;;5091388;28;20048;-81
2022/09/03 11:38:59;;;;;;;0.85;0.80;;;;;;;;;;5089256;27;20048;-83
2022/09/03 11:41:26;;;;;;;1.23;0.90;;;;;;;;;;5074520;28;20089;-82
2022/09/03 11:43:53;;;;;;;1.08;0.95;;;;;;;;;;5083757;27;20546;-82
2022/09/03 11:46:22;;;;;;;1.48;0.90;;;;;;;;;;5102777;28;20051;-83
2022/09/03 11:48:50;;;;;;;1.48;0.80;;;;;;;;;;5073745;28;20523;-82
2022/09/03 11:51:17;;;;;;;3.22;0.90;;;;;;;;;;5098838;27;20044;-83
2022/09/03 11:53:52;;;;;;;2.55;1.10;;;;;;;;;;5113410;27;20056;-82
2022/09/03 11:56:19;;;;;;;2.05;0.80;;;;;;;;;;5098704;28;20058;-83
2022/09/03 11:58:45;;;;;;;2.25;0.90;;;;;;;;;;5086214;28;20048;-84
2022/09/03 12:01:13;;;;;;;1.35;0.93;;;;;;;;;;5104823;28;20050;-82
2022/09/03 12:03:42;;;;;;;2.97;0.90;;;;;;;;;;5096150;28;20500;-86
2022/09/03 12:06:33;;;;;;;1.08;0.90;;;;;;;;;;5097251;28;20366;-83
2022/09/03 12:09:02;;;;;;;1.52;0.90;;;;;;;;;;5070462;28;20044;-83
2022/09/03 12:11:47;;;;;;;0.88;0.80;;;;;;;;;;5078038;28;20051;-82
2022/09/03 12:14:16;;;;;;;1.48;0.90;;;;;;;;;;5106940;27;20055;-82
2022/09/03 12:16:45;;;;;;;3.63;0.70;;;;;;;;;;5107738;27;20051;-84
2022/09/03 12:19:16;;;;;;;2.25;1.00;;;;;;;;;;5099447;28;20489;-83
2022/09/03 12:21:43;;;;;;;0.75;0.75;;;;;;;;;;5108694;28;20046;-84
2022/09/03 12:24:12;;;;;;;0.98;0.80;;;;;;;;;;5073463;28;20055;-83
2022/09/03 12:26:39;;;;;;;1.35;0.68;;;;;;;;;;5074346;28;20422;-83
2022/09/03 12:29:05;;;;;;;1.77;0.90;;;;;;;;;;5105129;28;20047;-84
2022/09/03 12:31:34;;;;;;;5.95;1.00;;;;;;;;;;5103963;28;20178;-83
2022/09/03 12:34:10;;;;;;;1.00;0.85;;;;;;;;;;5070156;28;20481;-82
2022/09/03 12:36:38;;;;;;;1.25;0.65;;;;;;;;;;5071072;28;20055;-83
2022/09/03 12:39:08;;;;;;;3.28;0.90;;;;;;;;;;5088446;28;20055;-84
2022/09/03 12:41:34;;;;;;;1.42;0.90;;;;;;;;;;5089658;28;20595;-83
2022/09/03 12:44:00;;;;;;;3.05;1.00;;;;;;;;;;5117587;27;20568;-83
2022/09/03 12:46:31;;;;;;;1.27;0.80;;;;;;;;;;5074415;28;20595;-82
2022/09/03 12:49:06;;;;;;;3.05;0.70;;;;;;;;;;5086834;28;20043;-77
2022/09/03 12:51:40;;;;;;;1.52;0.60;;;27.20;47.70;;;;;;5110879;27;20051;-80
2022/09/03 12:54:14;;;;;;;1.15;0.82;;;27.20;48.90;;;;;;5101176;28;20467;-84
2022/09/03 12:56:42;;;;;;;1.80;1.20;;;27.80;48.50;;;;;;5097210;28;20052;-86
2022/09/03 12:59:15;;;;;;;0.75;0.60;;;28.70;47.60;;;;;;5072766;28;20056;-84
2022/09/03 13:01:54;;;;;;;0.43;0.43;;;29.00;46.70;;;;;;5089018;28;20048;-84
2022/09/03 13:04:25;;;;;;;1.48;0.80;;;29.30;47.10;;;;;;5087026;28;20583;-85
2022/09/03 13:07:18;;;;;;;2.33;0.85;;;29.70;46.90;;;;;;5082870;28;20116;-86
2022/09/03 13:09:45;;;;;;;0.70;0.70;;;30.10;45.90;;;;;;5072281;28;20103;-85
2022/09/03 13:12:22;;;;;;;1.70;0.80;;;;;;;;;;5105733;28;20058;-85
2022/09/03 13:14:48;;;;;;;1.77;0.80;;;;;;;;;;5072912;28;20048;-85
2022/09/03 13:17:23;;;;;;;1.42;0.60;;;;;;;;;;5071326;28;20050;-85
2022/09/03 13:20:08;;;;;;;0.80;0.80;;;;;;;;;;5076174;28;20044;-86
2022/09/03 13:22:50;;;;;;;0.73;0.73;;;;;;;;;;5091049;28;20052;-86
2022/09/03 13:25:19;;;;;;;1.30;0.93;;;;;;;;;;5079553;28;20455;-86
2022/09/03 13:27:53;;;;;;;0.70;0.70;;;;;;;;;;5091522;28;20040;-86
2022/09/03 13:30:23;;;;;;;0.93;0.70;;;;;;;;;;5088829;28;20102;-84
2022/09/03 13:32:53;;;;;;;0.93;0.73;;;;;;;;;;5071582;28;20105;-85
2022/09/03 13:35:34;;;;;;;4.25;1.02;;;;;;;;;;5107091;28;20052;-88
2022/09/03 13:38:19;;;;;;;1.10;0.90;;;;;;;;;;5088061;28;20453;-85
2022/09/03 13:40:55;;;;;;;0.70;0.60;;;;;;;;;;5109296;28;20105;-86
2022/09/03 13:43:37;;;;;;;0.80;0.60;;;;;;;;;;5084861;28;20456;-87
2022/09/03 13:46:06;;;;;;;3.47;0.85;;;;;;;;;;5078299;28;20108;-89
2022/09/03 13:51:29;;;;;;;2.30;0.90;;;;;;;;;;5080504;28;20123;-84
2022/09/03 13:54:11;;;;;;;2.15;0.70;;;;;;;;;;5088597;28;20058;-86
2022/09/03 13:56:59;;;;;;;5.25;0.60;;;;;;;;;;5080686;28;20047;-87
2022/09/03 13:59:25;;;;;;;1.23;0.75;;;;;;;;;;5072164;28;20051;-87
2022/09/03 14:02:06;;;;;;;1.25;0.63;;;;;;;;;;5063359;28;20040;-86
2022/09/03 14:04:53;;;;;;;0.80;0.70;;;;;;;;;;5076225;28;20044;-87
2022/09/03 14:07:25;;;;;;;3.58;1.17;;;;;;;;;;5068688;28;20421;-87
2022/09/03 14:10:10;;;;;;;2.60;0.73;;;;;;;;;;5076972;28;20040;-85
2022/09/03 14:13:09;;;;;;;2.20;0.77;;;;;;;;;;5090710;28;20150;-86
2022/09/03 14:15:49;;;;;;;1.85;0.90;;;;;;;;;;5031276;28;20084;-87
2022/09/03 14:18:35;;;;;;;0.75;0.75;;;;;;;;;;5077858;28;20051;-85
2022/09/03 14:21:02;;;;;;;2.60;1.00;;;;;;;;;;5083498;28;20040;-87
2022/09/03 14:23:34;;;;;;;1.13;0.80;;;;;;;;;;5085747;28;20040;-87
2022/09/03 14:26:03;;;;;;;1.27;0.70;;;;;;;;;;5088774;28;20559;-87
2022/09/03 14:28:30;;;;;;;4.90;0.82;;;;;;;;;;5078693;28;20142;-87
2022/09/03 14:31:02;;;;;;;1.38;0.93;;;;;;;;;;5071090;28;20044;-87
2022/09/03 14:33:28;;;;;;;0.63;0.63;;;;;;;;;;5086580;28;20481;-87
2022/09/03 14:36:08;;;;;;;1.40;0.70;;;;;;;;;;5072937;28;20041;-87
2022/09/03 14:38:46;;;;;;;1.08;0.80;;;;;;;;;;5071422;28;20063;-87
2022/09/03 14:41:19;;;;;;;1.05;0.57;;;;;;;;;;5072525;28;20481;-87
2022/09/03 14:44:04;;;;;;;3.95;0.70;;;;;;;;;;5088538;28;20051;-87
2022/09/03 14:46:30;;;;;;;1.23;0.90;;;;;;;;;;5058988;28;20048;-88
2022/09/03 14:49:07;;;;;;;0.88;0.70;;;;;;;;;;5076177;28;20599;-87
2022/09/03 14:51:33;;;;;;;1.17;0.68;;;;;;;;;;5072420;28;20080;-86
2022/09/03 14:54:02;;;;;;;1.42;0.50;;;;;;;;;;5084382;28;20106;-87
2022/09/03 14:56:47;;;;;;;1.00;0.70;;;;;;;;;;5055240;28;20123;-87
2022/09/03 14:59:23;;;;;;;1.75;0.80;;;;;;;;;;5072398;28;20514;-88
2022/09/03 15:02:04;;;;;;;3.42;1.63;;;;;;;;;;5071531;28;20045;-87
2022/09/03 15:04:51;;;;;;;3.90;1.08;;;;;;;;;;5042151;28;20048;-87
2022/09/03 15:07:24;;;;;;;1.55;1.00;;;;;;;;;;5074684;28;20107;-86
2022/09/03 15:09:59;;;;;;;2.25;0.80;;;;;;;;;;5053725;28;20128;-87
2022/09/03 15:12:25;;;;;;;;;;;;;;;;;;5088850;28;20067;-88